.
WxDataArchive / Data Records for 2016-03-19
2016-03-18 March 2016 2016-03-20

Data Records for Saturday, 19 March 2016

Time	Temp	Chill	HIndex	Humid	Dewpt	 Wind 	HiWind	WindDir	Rain 	Barom
-----	----	-----	------	-----	-----	------	------	-------	-----	-----
00:00	39.6	39.6	39.6	66	29.2	0	1	292	0.00	30.085 
00:05	39.6	39.6	39.6	66	29.2	0	2	292	0.00	30.085 
00:10	39.6	39.6	39.6	65	28.8	1	3	315	0.00	30.085 
00:15	39.6	39.6	39.6	65	28.8	0	2	315	0.00	30.087 
00:20	39.6	39.6	39.6	66	29.2	0	3	315	0.00	30.087 
00:25	39.5	39.5	39.5	66	29.1	0	1	315	0.00	30.087 
00:30	39.5	39.5	39.5	66	29.1	0	4	315	0.00	30.083 
00:35	39.3	39.3	39.3	66	28.9	0	2	315	0.00	30.083 
00:40	39.3	39.3	39.3	67	29.3	0	3	315	0.00	30.083 
00:45	39.2	39.2	39.2	67	29.2	0	2	315	0.00	30.094 
00:50	39.2	39.2	39.2	67	29.2	0	1	315	0.00	30.094 
00:55	39.2	39.2	39.2	68	29.5	0	2	112	0.00	30.094 
01:00	39.2	39.2	39.2	68	29.5	0	1	112	0.00	30.097 
01:05	39.2	39.2	39.2	68	29.5	0	1	112	0.00	30.097 
01:10	39.2	39.2	39.2	68	29.5	0	3	112	0.00	30.097 
01:15	39.1	39.1	39.1	68	29.4	0	2	112	0.00	30.098 
01:20	39.1	39.1	39.1	69	29.8	0	1	112	0.00	30.098 
01:25	39.1	39.1	39.1	69	29.8	0	1	112	0.00	30.098 
01:30	39.1	39.1	39.1	69	29.8	0	0	---	0.00	30.097 
01:35	39.1	39.1	39.1	70	30.2	0	3	112	0.00	30.097 
01:40	39.1	39.1	39.1	72	30.8	1	4	112	0.00	30.097 
01:45	39.1	39.1	39.1	73	31.2	1	3	112	0.00	30.089 
01:50	38.9	38.9	38.9	74	31.3	0	3	112	0.00	30.089 
01:55	38.9	38.9	38.9	76	32.0	2	4	112	0.00	30.089 
02:00	38.9	38.9	38.9	77	32.3	1	4	112	0.00	30.092 
02:05	38.9	38.9	38.9	78	32.6	2	4	112	0.00	30.092 
02:10	38.9	38.9	38.9	78	32.6	2	5	112	0.00	30.092 
02:15	38.8	38.8	38.8	79	32.9	1	3	112	0.00	30.095 
02:20	38.6	38.6	38.6	79	32.7	2	5	112	0.00	30.095 
02:25	38.6	38.6	38.6	79	32.7	2	5	90	0.00	30.095 
02:30	38.5	38.5	38.5	80	32.9	1	4	90	0.00	30.098 
02:35	38.5	38.5	38.5	80	32.9	2	4	90	0.00	30.098 
02:40	38.3	38.3	38.3	80	32.7	2	5	90	0.00	30.098 
02:45	38.3	38.3	38.3	80	32.7	2	4	90	0.00	30.103 
02:50	38.3	38.3	38.3	80	32.7	2	5	90	0.00	30.103 
02:55	38.2	38.2	38.2	81	32.9	3	5	90	0.00	30.103 
03:00	38.2	38.2	38.2	81	32.9	3	9	90	0.00	30.097 
03:05	38.0	38.0	38.0	81	32.7	2	5	90	0.00	30.097 
03:10	38.0	38.0	38.0	81	32.7	3	9	112	0.00	30.097 
03:15	37.9	37.9	37.9	81	32.6	3	9	112	0.00	30.092 
03:20	37.9	37.9	37.9	81	32.6	3	9	90	0.00	30.092 
03:25	37.8	37.8	37.8	81	32.5	3	10	90	0.00	30.092 
03:30	37.6	37.6	37.6	81	32.3	3	6	90	0.00	30.083 
03:35	37.5	33.5	37.5	81	32.2	5	11	112	0.00	30.083 
03:40	37.3	37.3	37.3	81	32.0	3	10	112	0.00	30.083 
03:45	37.3	37.3	37.3	82	32.3	2	9	90	0.00	30.075 
03:50	37.2	37.2	37.2	83	32.5	3	8	112	0.00	30.075 
03:55	37.2	37.2	37.2	83	32.5	3	9	112	0.00	30.075 
04:00	37.0	37.0	37.0	83	32.3	2	9	90	0.00	30.066 
04:05	37.0	37.0	37.0	83	32.3	2	7	90	0.00	30.066 
04:10	36.9	33.7	36.9	83	32.2	4	10	112	0.00	30.066 
04:15	36.8	33.6	36.8	83	32.1	4	7	112	0.00	30.059 
04:20	36.8	36.8	36.8	83	32.1	3	9	90	0.00	30.059 
04:25	36.6	36.6	36.6	83	31.9	2	7	90	0.00	30.059 
04:30	36.5	36.5	36.5	83	31.8	2	9	90	0.00	30.064 
04:35	36.3	36.3	36.3	82	31.3	3	9	90	0.00	30.064 
04:40	36.0	36.0	36.0	81	30.7	2	10	90	0.00	30.064 
04:45	35.8	32.5	35.8	78	29.6	4	9	90	0.00	30.064 
04:50	35.6	35.6	35.6	77	29.1	3	7	90	0.00	30.064 
04:55	35.6	35.6	35.6	77	29.1	3	7	112	0.00	30.064 
05:00	35.5	35.5	35.5	73	27.7	3	10	112	0.00	30.060 
05:05	35.3	35.3	35.3	73	27.5	3	9	112	0.00	30.060 
05:10	35.3	35.3	35.3	73	27.5	3	6	112	0.00	30.060 
05:15	35.2	35.2	35.2	74	27.8	2	5	90	0.00	30.066 
05:20	35.2	35.2	35.2	74	27.8	1	4	90	0.00	30.066 
05:25	35.2	35.2	35.2	75	28.1	1	3	112	0.00	30.066 
05:30	35.2	35.2	35.2	76	28.4	1	7	90	0.00	30.065 
05:35	35.0	35.0	35.0	75	27.9	3	7	90	0.00	30.065 
05:40	35.0	35.0	35.0	75	27.9	3	9	112	0.00	30.065 
05:45	35.0	35.0	35.0	77	28.5	3	6	112	0.00	30.069 
05:50	34.9	34.9	34.9	77	28.4	1	6	112	0.00	30.069 
05:55	34.9	34.9	34.9	77	28.4	2	7	112	0.00	30.069 
06:00	34.7	34.7	34.7	77	28.2	2	7	90	0.00	30.083 
06:05	34.7	34.7	34.7	77	28.2	2	6	112	0.00	30.083 
06:10	34.6	34.6	34.6	78	28.5	2	6	112	0.00	30.083 
06:15	34.6	34.6	34.6	78	28.5	2	5	90	0.00	30.085 
06:20	34.6	34.6	34.6	77	28.1	3	6	112	0.00	30.085 
06:25	34.6	34.6	34.6	78	28.5	2	5	112	0.00	30.085 
06:30	34.6	34.6	34.6	78	28.5	2	5	90	0.00	30.085 
06:35	34.4	34.4	34.4	78	28.3	2	6	112	0.00	30.085 
06:40	34.4	34.4	34.4	79	28.6	2	7	112	0.00	30.085 
06:45	34.3	34.3	34.3	79	28.5	2	6	90	0.00	30.080 
06:50	34.1	34.1	34.1	80	28.6	1	7	112	0.00	30.080 
06:55	34.1	34.1	34.1	80	28.6	2	5	90	0.00	30.080 
07:00	34.0	34.0	34.0	79	28.2	2	5	90	0.00	30.085 
07:05	33.8	33.8	33.8	78	27.7	1	5	90	0.00	30.085 
07:10	33.8	33.8	33.8	77	27.4	3	10	90	0.00	30.085 
07:15	33.7	33.7	33.7	76	27.0	2	7	112	0.00	30.090 
07:20	33.7	33.7	33.7	75	26.6	1	5	90	0.00	30.090 
07:25	33.5	33.5	33.5	75	26.4	1	4	112	0.00	30.090 
07:30	33.5	33.5	33.5	75	26.4	0	3	22	0.00	30.090 
07:35	33.4	33.4	33.4	72	25.4	1	6	90	0.00	30.090 
07:40	33.1	33.1	33.1	69	24.1	2	10	112	0.00	30.090 
07:45	33.1	33.1	33.1	67	23.4	2	7	90	0.00	30.104 
07:50	33.1	33.1	33.1	66	23.0	3	8	112	0.00	30.104 
07:55	33.1	33.1	33.1	66	23.0	2	5	90	0.00	30.104 
08:00	33.2	33.2	33.2	66	23.1	2	7	90	0.00	30.109 
08:05	33.1	33.1	33.1	66	23.0	2	7	112	0.00	30.109 
08:10	33.1	33.1	33.1	65	22.6	2	5	112	0.00	30.109 
08:15	32.9	32.9	32.9	65	22.4	2	6	112	0.00	30.122 
08:20	32.9	32.9	32.9	65	22.4	1	5	90	0.00	30.122 
08:25	32.9	32.9	32.9	65	22.4	2	7	90	0.00	30.122 
08:30	32.9	32.9	32.9	65	22.4	3	7	112	0.00	30.124 
08:35	32.9	32.9	32.9	66	22.8	1	11	112	0.00	30.124 
08:40	32.9	32.9	32.9	65	22.4	2	7	90	0.00	30.124 
08:45	32.9	32.9	32.9	65	22.4	1	5	112	0.00	30.132 
08:50	32.9	32.9	32.9	66	22.8	1	5	112	0.00	30.132 
08:55	32.8	32.8	32.8	66	22.7	2	7	112	0.00	30.132 
09:00	32.8	32.8	32.8	67	23.1	2	6	112	0.00	30.137 
09:05	32.9	32.9	32.9	68	23.5	2	11	90	0.00	30.137 
09:10	32.9	32.9	32.9	68	23.5	1	6	90	0.00	30.137 
09:15	32.9	32.9	32.9	69	23.9	1	6	112	0.00	30.139 
09:20	32.9	32.9	32.9	69	23.9	1	4	90	0.00	30.139 
09:25	32.9	32.9	32.9	69	23.9	2	10	112	0.00	30.139 
09:30	32.9	29.1	32.9	69	23.9	4	11	112	0.00	30.139 
09:35	32.9	32.9	32.9	69	23.9	1	6	112	0.00	30.139 
09:40	32.9	32.9	32.9	70	24.2	1	3	0	0.00	30.139 
09:45	32.9	32.9	32.9	70	24.2	1	6	45	0.00	30.141 
09:50	32.9	32.9	32.9	69	23.9	2	6	112	0.00	30.141 
09:55	32.9	32.9	32.9	69	23.9	2	6	112	0.00	30.141 
10:00	32.9	32.9	32.9	69	23.9	2	7	112	0.00	30.141 
10:05	32.8	32.8	32.8	70	24.1	2	7	68	0.00	30.141 
10:10	32.8	32.8	32.8	70	24.1	2	8	68	0.00	30.141 
10:15	32.7	27.9	32.7	70	24.0	5	10	112	0.00	30.149 
10:20	32.5	28.7	32.5	70	23.8	4	10	112	0.00	30.149 
10:25	32.8	32.8	32.8	71	24.4	1	3	90	0.00	30.149 
10:30	32.8	32.8	32.8	70	24.1	3	13	45	0.00	30.151 
10:35	32.8	32.8	32.8	69	23.8	3	8	45	0.00	30.151 
10:40	32.9	32.9	32.9	69	23.9	1	5	112	0.00	30.151 
10:45	33.1	33.1	33.1	69	24.1	2	10	112	0.00	30.148 
10:50	33.1	33.1	33.1	69	24.1	2	7	112	0.00	30.148 
10:55	33.2	33.2	33.2	69	24.2	2	6	112	0.00	30.148 
11:00	33.1	33.1	33.1	68	23.7	2	10	90	0.00	30.150 
11:05	33.1	33.1	33.1	67	23.4	2	7	90	0.00	30.150 
11:10	33.1	33.1	33.1	67	23.4	2	7	90	0.00	30.150 
11:15	33.1	33.1	33.1	67	23.4	3	7	112	0.00	30.154 
11:20	33.1	33.1	33.1	66	23.0	3	7	90	0.00	30.154 
11:25	33.1	33.1	33.1	65	22.6	3	9	112	0.00	30.154 
11:30	33.1	33.1	33.1	65	22.6	1	3	112	0.00	30.157 
11:35	33.2	33.2	33.2	63	22.0	2	8	90	0.00	30.157 
11:40	33.2	33.2	33.2	63	22.0	2	9	90	0.00	30.157 
11:45	33.2	29.5	33.2	62	21.6	4	10	90	0.00	30.158 
11:50	33.2	33.2	33.2	63	22.0	2	7	112	0.00	30.158 
11:55	33.2	33.2	33.2	63	22.0	3	10	112	0.00	30.158 
12:00	33.4	33.4	33.4	63	22.2	2	6	112	0.00	30.158 
12:05	33.4	33.4	33.4	61	21.4	3	9	112	0.00	30.158 
12:10	33.5	33.5	33.5	61	21.5	2	6	90	0.00	30.158 
12:15	33.7	33.7	33.7	59	20.9	2	7	112	0.00	30.158 
12:20	33.7	33.7	33.7	57	20.1	2	9	90	0.00	30.158 
12:25	33.7	33.7	33.7	58	20.5	2	8	112	0.00	30.158 
12:30	33.7	33.7	33.7	58	20.5	2	9	22	0.00	30.158 
12:35	33.8	33.8	33.8	58	20.6	2	6	112	0.00	30.158 
12:40	33.8	33.8	33.8	57	20.2	2	5	90	0.00	30.158 
12:45	33.7	33.7	33.7	57	20.1	1	7	90	0.00	30.158 
12:50	33.8	33.8	33.8	58	20.6	1	3	45	0.00	30.158 
12:55	34.0	30.4	34.0	54	19.1	4	7	112	0.00	30.158 
13:00	34.1	34.1	34.1	54	19.2	2	5	112	0.00	30.158 
13:05	34.3	34.3	34.3	54	19.4	3	8	112	0.00	30.158 
13:10	34.4	34.4	34.4	54	19.5	1	5	22	0.00	30.158 
13:15	34.7	34.7	34.7	54	19.8	2	6	112	0.00	30.156 
13:20	34.7	34.7	34.7	54	19.8	2	7	112	0.00	30.156 
13:25	34.7	31.2	34.7	53	19.3	4	7	112	0.00	30.156 
13:30	34.7	34.7	34.7	54	19.8	3	10	112	0.00	30.155 
13:35	34.9	34.9	34.9	55	20.4	1	3	90	0.00	30.155 
13:40	35.2	35.2	35.2	54	20.2	2	6	90	0.00	30.155 
13:45	35.3	35.3	35.3	54	20.3	2	9	90	0.00	30.150 
13:50	35.5	35.5	35.5	52	19.6	2	9	90	0.00	30.150 
13:55	35.6	35.6	35.6	53	20.2	3	7	90	0.00	30.150 
14:00	35.6	35.6	35.6	53	20.2	2	7	112	0.00	30.147 
14:05	35.9	35.9	35.9	53	20.5	2	10	90	0.00	30.147 
14:10	36.0	36.0	36.0	53	20.5	3	7	112	0.00	30.147 
14:15	36.0	36.0	36.0	53	20.5	1	6	90	0.00	30.144 
14:20	36.0	36.0	36.0	54	21.0	1	4	68	0.00	30.144 
14:25	36.2	36.2	36.2	54	21.2	1	7	90	0.00	30.144 
14:30	36.5	36.5	36.5	55	21.9	1	4	45	0.00	30.141 
14:35	36.6	36.6	36.6	54	21.5	1	4	112	0.00	30.141 
14:40	36.8	36.8	36.8	54	21.7	1	4	112	0.00	30.141 
14:45	37.0	37.0	37.0	54	21.9	1	5	45	0.00	30.140 
14:50	37.3	37.3	37.3	53	21.8	1	5	112	0.00	30.140 
14:55	37.6	37.6	37.6	53	22.0	1	5	112	0.00	30.140 
15:00	37.8	37.8	37.8	52	21.8	2	6	90	0.00	30.137 
15:05	37.9	37.9	37.9	53	22.3	2	8	90	0.00	30.137 
15:10	38.0	38.0	38.0	53	22.4	1	4	90	0.00	30.137 
15:15	38.2	38.2	38.2	52	22.1	1	6	112	0.00	30.138 
15:20	38.2	38.2	38.2	50	21.2	2	7	112	0.00	30.138 
15:25	38.2	38.2	38.2	50	21.2	1	4	68	0.00	30.138 
15:30	38.3	38.3	38.3	50	21.3	1	4	90	0.00	30.135 
15:35	38.5	38.5	38.5	51	22.0	1	5	90	0.00	30.135 
15:40	38.6	38.6	38.6	51	22.1	1	3	45	0.00	30.135 
15:45	38.9	38.9	38.9	50	21.9	2	8	112	0.00	30.133 
15:50	39.1	39.1	39.1	49	21.6	2	10	90	0.00	30.133 
15:55	39.2	39.2	39.2	48	21.2	1	5	90	0.00	30.133 
16:00	39.6	39.6	39.6	49	22.0	1	3	90	0.00	30.133 
16:05	40.1	40.1	40.1	48	22.0	1	3	68	0.00	30.133 
16:10	40.3	40.3	40.3	48	22.2	1	3	22	0.00	30.133 
16:15	40.5	40.5	40.5	48	22.4	1	6	90	0.00	30.133 
16:20	40.6	40.6	40.6	47	22.0	1	4	0	0.00	30.133 
16:25	40.6	40.6	40.6	46	21.5	1	6	112	0.00	30.133 
16:30	40.6	40.6	40.6	46	21.5	0	4	112	0.00	30.138 
16:35	40.8	40.8	40.8	46	21.6	1	4	22	0.00	30.138 
16:40	40.8	40.8	40.8	46	21.6	3	7	112	0.00	30.138 
16:45	40.8	40.8	40.8	46	21.6	0	2	112	0.00	30.138 
16:50	40.8	40.8	40.8	46	21.6	1	4	90	0.00	30.138 
16:55	40.9	40.9	40.9	46	21.7	0	3	315	0.00	30.138 
17:00	40.9	40.9	40.9	44	20.7	1	4	315	0.00	30.134 
17:05	41.1	41.1	41.1	46	21.9	0	2	45	0.00	30.134 
17:10	41.3	41.3	41.3	43	20.5	1	3	68	0.00	30.134 
17:15	41.5	41.5	41.5	43	20.7	1	6	68	0.00	30.127 
17:20	41.3	41.3	41.3	43	20.5	1	4	68	0.00	30.127 
17:25	41.3	41.3	41.3	43	20.5	1	3	45	0.00	30.127 
17:30	41.3	41.3	41.3	42	20.0	2	7	90	0.00	30.123 
17:35	41.3	41.3	41.3	42	20.0	2	4	90	0.00	30.123 
17:40	41.5	41.5	41.5	41	19.6	2	5	112	0.00	30.123 
17:45	41.5	41.5	41.5	40	19.0	1	5	90	0.00	30.122 
17:50	41.5	41.5	41.5	40	19.0	1	4	68	0.00	30.122 
17:55	41.5	41.5	41.5	39	18.4	2	6	112	0.00	30.122 
18:00	41.3	41.3	41.3	37	17.0	2	7	112	0.00	30.122 
18:05	41.3	41.3	41.3	38	17.6	3	9	112	0.00	30.122 
18:10	41.3	41.3	41.3	37	17.0	1	4	22	0.00	30.122 
18:15	41.1	41.1	41.1	38	17.5	2	6	90	0.00	30.124 
18:20	40.9	40.9	40.9	39	17.9	2	9	112	0.00	30.124 
18:25	40.9	40.9	40.9	38	17.3	1	3	68	0.00	30.124 
18:30	40.9	40.9	40.9	39	17.9	3	6	112	0.00	30.124 
18:35	40.8	40.8	40.8	39	17.8	2	6	112	0.00	30.124 
18:40	40.6	40.6	40.6	38	17.0	2	7	112	0.00	30.124 
18:45	40.5	40.5	40.5	37	16.3	2	7	90	0.00	30.125 
18:50	40.3	40.3	40.3	38	16.7	1	5	68	0.00	30.125 
18:55	40.1	40.1	40.1	37	15.9	3	7	112	0.00	30.125 
19:00	39.9	39.9	39.9	37	15.8	3	7	112	0.00	30.133 
19:05	39.8	39.8	39.8	37	15.7	2	7	112	0.00	30.133 
19:10	39.6	39.6	39.6	37	15.5	2	6	90	0.00	30.133 
19:15	39.5	39.5	39.5	37	15.4	1	4	90	0.00	30.141 
19:20	39.3	39.3	39.3	36	14.6	0	2	45	0.00	30.141 
19:25	39.1	39.1	39.1	36	14.4	2	6	112	0.00	30.141 
19:30	38.8	38.8	38.8	36	14.2	2	4	90	0.00	30.143 
19:35	38.6	38.6	38.6	36	14.0	3	7	112	0.00	30.143 
19:40	38.3	38.3	38.3	38	14.9	1	5	90	0.00	30.143 
19:45	38.0	38.0	38.0	38	14.7	1	5	90	0.00	30.146 
19:50	37.9	37.9	37.9	39	15.2	0	3	90	0.00	30.146 
19:55	37.6	37.6	37.6	39	14.9	0	2	90	0.00	30.146 
20:00	37.3	37.3	37.3	39	14.6	1	3	90	0.00	30.148 
20:05	37.0	37.0	37.0	39	14.4	0	2	90	0.00	30.148 
20:10	36.9	36.9	36.9	40	14.9	1	4	90	0.00	30.148 
20:15	36.6	36.6	36.6	40	14.6	0	2	90	0.00	30.158 
20:20	36.3	36.3	36.3	41	14.9	0	3	90	0.00	30.158 
20:25	36.2	36.2	36.2	43	15.9	0	1	90	0.00	30.158 
20:30	35.9	35.9	35.9	43	15.6	0	0	---	0.00	30.161 
20:35	35.6	35.6	35.6	44	15.9	0	0	---	0.00	30.161 
20:40	35.3	35.3	35.3	44	15.6	0	1	90	0.00	30.161 
20:45	35.0	35.0	35.0	45	15.8	0	2	90	0.00	30.164 
20:50	35.0	35.0	35.0	46	16.3	0	2	90	0.00	30.164 
20:55	34.9	34.9	34.9	46	16.2	1	4	90	0.00	30.164 
21:00	34.9	34.9	34.9	46	16.2	1	3	90	0.00	30.172 
21:05	34.7	34.7	34.7	47	16.6	0	2	90	0.00	30.172 
21:10	34.6	34.6	34.6	48	16.9	0	2	90	0.00	30.172 
21:15	34.4	34.4	34.4	49	17.2	0	1	90	0.00	30.179 
21:20	34.3	34.3	34.3	50	17.6	0	2	90	0.00	30.179 
21:25	34.1	34.1	34.1	50	17.4	0	1	90	0.00	30.179 
21:30	34.0	34.0	34.0	50	17.3	1	4	68	0.00	30.180 
21:35	33.8	33.8	33.8	51	17.6	0	1	68	0.00	30.180 
21:40	33.5	33.5	33.5	52	17.8	0	1	68	0.00	30.180 
21:45	33.4	33.4	33.4	53	18.1	0	1	68	0.00	30.184 
21:50	33.1	33.1	33.1	53	17.9	0	2	68	0.00	30.184 
21:55	32.9	32.9	32.9	54	18.1	0	3	68	0.00	30.184 
22:00	32.7	32.7	32.7	54	17.9	0	0	---	0.00	30.184 
22:05	32.5	32.5	32.5	54	17.7	0	0	---	0.00	30.184 
22:10	32.1	32.1	32.1	55	17.8	0	0	---	0.00	30.184 
22:15	31.8	31.8	31.8	55	17.5	0	0	---	0.00	30.187 
22:20	31.3	31.3	31.3	56	17.4	0	0	---	0.00	30.187 
22:25	30.9	30.9	30.9	56	17.1	0	0	---	0.00	30.187 
22:30	30.4	30.4	30.4	57	17.0	0	0	---	0.00	30.187 
22:35	30.1	30.1	30.1	57	16.7	0	0	---	0.00	30.187 
22:40	29.8	29.8	29.8	58	16.8	0	0	---	0.00	30.187 
22:45	29.4	29.4	29.4	59	16.9	0	0	---	0.00	30.188 
22:50	29.1	29.1	29.1	60	17.0	0	0	---	0.00	30.188 
22:55	29.0	29.0	29.0	60	16.9	0	0	---	0.00	30.188 
23:00	28.7	28.7	28.7	61	17.0	0	0	---	0.00	30.184 
23:05	28.5	28.5	28.5	62	17.2	0	0	---	0.00	30.184 
23:10	28.4	28.4	28.4	62	17.1	0	0	---	0.00	30.184 
23:15	28.2	28.2	28.2	63	17.2	0	0	---	0.00	30.185 
23:20	28.2	28.2	28.2	64	17.6	0	0	---	0.00	30.185 
23:25	28.1	28.1	28.1	64	17.5	0	0	---	0.00	30.185 
23:30	28.1	28.1	28.1	65	17.9	0	0	---	0.00	30.182 
23:35	27.9	27.9	27.9	65	17.7	0	0	---	0.00	30.182 
23:40	27.9	27.9	27.9	65	17.7	0	0	---	0.00	30.182 
23:45	27.8	27.8	27.8	66	17.9	0	0	---	0.00	30.176 
23:50	27.8	27.8	27.8	66	17.9	0	0	---	0.00	30.176 
23:55	27.6	27.6	27.6	67	18.1	0	0	---	0.00	30.176 

CoCoRaHS
IN-AL-39
A2 Web Hosting
Creative Commons License
GoDaddy
search engine by freefind advanced

loaded 2018-11-22 06:14:08 • last modified 2010-11-18 10:43:29
Privacy PolicyDisclaimer
• wx.awcolley.com is powered by PmWiki v.2002016 •
• all content (unless otherwise noted) © 2018 A W Colley